• Join FlightAware (Why Join?)
  • Login
  • US Flag 
12:48PM EDT


 

Airport Tracker/Info


-or-


 

Live Flight TrackerFlight Track Log ✈ N57AM ✈ 16-Jun-2013 ✈ KIAD - KIPJ

Flight Track Log - Related Links

Times and Time Zones

All times are in EDT time to prevent confusion due to time zone crossing. See the N57AM flight status page for this flight to view local times or setup timezone preferences in your user account.

Time Position Orientation Groundspeed Altitude Reporting Facility
EDT Latitude Longitude Course Direction KTS MPH feet Rate Location/Type
01:22PM 38.9167 -77.4333 218° Southwest 126 145 1,100  Level Potomac TRACON
01:22PM 38.8667 -77.4333 180° South 138 159 1,700 600 Climbing Potomac TRACON
01:23PM 38.8333 -77.4333 180° South 138 159 2,300 540 Climbing Potomac TRACON
01:25PM 38.8000 -77.4500 201° Southwest 140 161 2,900 480 Climbing Potomac TRACON
01:26PM 38.7667 -77.4833 218° Southwest 134 154 3,300 360 Climbing Potomac TRACON
01:27PM 38.7930 -77.6570 218° Southwest  Level FlightAware Approximate
01:27PM 38.7500 -77.5167 237° Southwest 136 157 3,700  Level Potomac TRACON
01:28PM 38.7333 -77.5667 247° West 130 150 4,200 480 Climbing Potomac TRACON
01:29PM 38.7167 -77.6000 237° Southwest 122 140 4,700 420 Climbing Potomac TRACON
01:30PM 38.7000 -77.6333 237° Southwest 126 145 5,100 360 Climbing Potomac TRACON
01:30PM 38.7000 -77.6833 270° West 123 142 5,400 180 Climbing Potomac TRACON
01:31PM 38.6833 -77.7167 237° Southwest 126 145 5,500 60 Climbing Potomac TRACON
01:32PM 38.6667 -77.7667 247° West 129 148 5,600 120 Climbing Potomac TRACON
01:33PM 38.6500 -77.8000 237° Southwest 132 152 5,800 180 Climbing Potomac TRACON
01:34PM 38.6500 -77.8500 270° West 140 161 6,000 300 Climbing Potomac TRACON
01:35PM 38.6167 -77.9000 230° Southwest 155 178 6,400 300 Climbing Potomac TRACON
01:36PM 38.6000 -77.9333 237° Southwest 145 167 6,700 180 Climbing Potomac TRACON
01:37PM 38.5833 -77.9833 247° West 146 168 6,800 180 Climbing Potomac TRACON
01:38PM 38.5500 -78.0167 218° Southwest 131 151 7,100 300 Climbing Potomac TRACON
01:39PM 38.5333 -78.0500 237° Southwest 130 150 7,400 300 Climbing Potomac TRACON
01:40PM 38.5167 -78.0833 237° Southwest 130 150 7,800 240 Climbing Potomac TRACON
01:41PM 38.4833 -78.1333 230° Southwest 146 168 8,000 60 Climbing Potomac TRACON
01:42PM 38.4667 -78.1667 237° Southwest 157 181 8,000 -60 Level Potomac TRACON
01:43PM 38.4333 -78.2167 230° Southwest 151 174 7,900 -60 Descending Potomac TRACON
01:44PM 38.4167 -78.2500 237° Southwest 146 168 7,900 60 Level Potomac TRACON
01:45PM 38.3833 -78.3000 230° Southwest 151 174 8,100  Climbing Potomac TRACON
01:46PM 38.3667 -78.3333 237° Southwest 158 182 7,900 -60 Descending Potomac TRACON
01:47PM 38.3333 -78.3833 230° Southwest 151 174 8,000  Climbing Potomac TRACON
01:48PM 38.3167 -78.4167 237° Southwest 143 165 7,900  Descending Potomac TRACON
01:50PM 38.2833 -78.4667 230° Southwest 142 163 8,000  Climbing Potomac TRACON
01:51PM 38.2667 -78.5000 238° Southwest 147 169 7,900  Descending Potomac TRACON
01:52PM 38.2333 -78.5500 230° Southwest 150 173 8,000  Climbing Potomac TRACON
01:53PM 38.2167 -78.5833 238° Southwest 153 176 7,900 -60 Descending Potomac TRACON
01:54PM 38.1833 -78.6167 218° Southwest 147 169 7,900  Level Potomac TRACON
01:55PM 38.1667 -78.6667 247° West 137 158 8,000  Climbing Potomac TRACON
01:56PM 38.1333 -78.7000 218° Southwest 147 169 8,000 -60 Level Potomac TRACON
01:57PM 38.1000 -78.7333 218° Southwest 157 181 7,900  Descending Potomac TRACON
01:58PM 38.0833 -78.7667 238° Southwest 148 170 8,000  Climbing Potomac TRACON
01:59PM 38.0333 -78.8000 208° Southwest 158 182 7,900  Descending Potomac TRACON
02:00PM 38.0167 -78.8333 238° Southwest 147 169 8,000 60 Climbing Potomac TRACON
02:01PM 37.9833 -78.8833 230° Southwest 145 167 8,100 60 Climbing Potomac TRACON
02:02PM 37.9500 -78.9167 218° Southwest 147 169 8,200  Climbing Potomac TRACON
02:03PM 37.9167 -78.9333 202° Southwest 135 155 8,200 120 Level Potomac TRACON
02:03PM 37.9133 -78.9556 259° West 161 185 8,400 420 Climbing Washington Center
02:04PM 37.8833 -78.9858 219° Southwest 141 162 8,900 420 Climbing Washington Center
02:05PM 37.8575 -79.0111 218° Southwest 135 155 9,300 240 Climbing Washington Center
02:06PM 37.8275 -79.0386 216° Southwest 135 155 9,500 120 Climbing Washington Center
02:07PM 37.7997 -79.0661 218° Southwest 135 155 9,600 240 Climbing Washington Center
02:08PM 37.7739 -79.0914 218° Southwest 135 155 10,000 180 Climbing Washington Center
02:09PM 37.7358 -79.1078 199° South 135 155 10,000  Level Washington Center
02:10PM 37.6939 -79.1217 195° South 153 176 10,000  Level Washington Center
02:11PM 37.6514 -79.1408 200° South 159 183 10,000  Level Washington Center
02:12PM 37.6053 -79.1542 193° South 159 183 10,100  Climbing Washington Center
02:13PM 37.5631 -79.1681 195° South 159 183 10,100 -60 Level Washington Center
02:14PM 37.5208 -79.1844 197° South 166 191 10,000 -120 Descending Washington Center
02:15PM 37.4786 -79.1981 194° South 166 191 9,900  Descending Washington Center
02:16PM 37.4389 -79.2092 193° South 166 191 10,000  Climbing Washington Center
02:17PM 37.3964 -79.2281 199° South 166 191 10,000  Level Washington Center
02:18PM 37.3542 -79.2444 197° South 166 191 10,000  Level Washington Center
02:19PM 37.3100 -79.2606 196° South 166 191 10,000  Level Washington Center
02:20PM 37.2656 -79.2767 196° South 166 191 10,000 -60 Level Washington Center
02:21PM 37.2314 -79.3092 217° Southwest 160 184 9,900  Descending Washington Center
02:22PM 37.1931 -79.3306 204° Southwest 160 184 10,000  Climbing Washington Center
02:23PM 37.1567 -79.3575 211° Southwest 160 184 10,000  Level Washington Center
02:24PM 37.1286 -79.3875 220° Southwest 160 184 10,000  Level Washington Center
02:25PM 37.0964 -79.4197 219° Southwest 155 178 10,000  Level Washington Center
02:26PM 37.0639 -79.4519 218° Southwest 155 178 10,000  Level Washington Center
02:27PM 37.0317 -79.4867 221° Southwest 155 178 10,000  Level Washington Center
02:28PM 37.0014 -79.5217 223° Southwest 150 173 10,000  Level Washington Center
02:29PM 36.9708 -79.5564 222° Southwest 150 173 10,000  Level Washington Center
02:30PM 36.9428 -79.5889 223° Southwest 145 167 10,000  Level Washington Center
02:31PM 36.9144 -79.6211 222° Southwest 145 167 10,000  Level Washington Center
02:32PM 36.8842 -79.6558 223° Southwest 145 167 10,000  Level Washington Center
02:33PM 36.8536 -79.6906 222° Southwest 145 167 10,000  Level Washington Center
02:35PM 36.8148 -79.7306 220° Southwest  Level FlightAware Approximate
02:42PM 36.5988 -79.9574 221° Southwest  Level FlightAware Approximate
02:43PM 36.5685 -79.9904 221° Southwest  Level FlightAware Approximate
02:44PM 36.5382 -80.0234 221° Southwest  Level FlightAware Approximate
02:45PM 36.5079 -80.0564 221° Southwest  Level FlightAware Approximate
02:46PM 36.4769 -80.0881 219° Southwest  Level FlightAware Approximate
02:47PM 36.4459 -80.1199 219° Southwest  Level FlightAware Approximate
02:48PM 36.4148 -80.1516 219° Southwest  Level FlightAware Approximate
02:49PM 36.3841 -80.1840 221° Southwest  Level FlightAware Approximate
02:50PM 36.3539 -80.2169 221° Southwest  Level FlightAware Approximate